createdAt,value
2022-11-04T00:00:10.666Z,29.30
2022-11-04T00:02:37.347Z,32.65
2022-11-04T00:05:04.183Z,28.42
2022-11-04T00:07:49.255Z,21.67
2022-11-04T00:10:15.852Z,26.92
2022-11-04T00:12:42.403Z,23.75
2022-11-04T00:15:27.704Z,25.52
2022-11-04T00:17:54.328Z,24.35
2022-11-04T00:20:39.309Z,22.83
2022-11-04T00:23:24.257Z,28.92
2022-11-04T00:26:10.521Z,21.20
2022-11-04T00:28:43.065Z,26.15
2022-11-04T00:31:29.104Z,21.45
2022-11-04T00:33:58.428Z,30.60
2022-11-04T00:36:25.730Z,24.52
2022-11-04T00:38:52.387Z,30.73
2022-11-04T00:41:28.272Z,29.30
2022-11-04T00:44:00.479Z,33.97
2022-11-04T00:46:28.669Z,31.98
2022-11-04T00:48:55.602Z,21.95
2022-11-04T00:51:22.854Z,31.10
2022-11-04T00:53:50.399Z,28.90
2022-11-04T00:56:17.001Z,33.28
2022-11-04T00:58:43.825Z,30.42
2022-11-04T01:01:12.274Z,32.08
2022-11-04T01:03:39.512Z,32.47
2022-11-04T01:06:06.438Z,35.33
2022-11-04T01:08:33.083Z,33.72
2022-11-04T01:11:06.982Z,24.10
2022-11-04T01:13:34.104Z,29.65
2022-11-04T01:16:01.664Z,28.73
2022-11-04T01:18:28.899Z,36.47
2022-11-04T01:20:55.643Z,35.00
2022-11-04T01:23:22.231Z,29.30
2022-11-04T01:25:48.824Z,29.85
2022-11-04T01:28:15.520Z,25.27
2022-11-04T01:30:42.093Z,26.83
2022-11-04T01:33:08.669Z,43.40
2022-11-04T01:35:35.314Z,29.40
2022-11-04T01:38:01.905Z,35.30
2022-11-04T01:40:28.559Z,27.40
2022-11-04T01:42:55.123Z,32.17
2022-11-04T01:45:24.391Z,31.60
2022-11-04T01:48:09.800Z,36.85
2022-11-04T01:50:37.439Z,26.98
2022-11-04T01:53:13.218Z,31.67
2022-11-04T01:55:55.829Z,27.33
2022-11-04T01:58:26.796Z,23.50
2022-11-04T02:00:53.414Z,28.08
2022-11-04T02:03:34.256Z,34.25
2022-11-04T02:06:02.668Z,24.08
2022-11-04T02:08:29.983Z,27.27
2022-11-04T02:11:00.605Z,27.15
2022-11-04T02:13:28.756Z,30.98
2022-11-04T02:16:28.636Z,31.92
2022-11-04T02:19:36.587Z,35.58
2022-11-04T02:22:12.029Z,29.42
2022-11-04T02:24:47.383Z,25.38
2022-11-04T02:27:20.051Z,33.88
2022-11-04T02:29:52.527Z,24.55
2022-11-04T02:32:34.701Z,25.13
2022-11-04T02:35:38.542Z,32.22
2022-11-04T02:38:30.049Z,33.35
2022-11-04T02:41:05.436Z,26.00
2022-11-04T02:43:41.431Z,30.50
2022-11-04T02:46:22.321Z,26.67
2022-11-04T02:48:54.937Z,30.98
2022-11-04T02:51:31.324Z,27.48
2022-11-04T02:54:16.904Z,37.17
2022-11-04T02:56:51.183Z,33.83
2022-11-04T02:59:23.118Z,30.95
2022-11-04T03:01:53.422Z,30.27
2022-11-04T03:04:28.162Z,29.40
2022-11-04T03:06:56.308Z,33.58
2022-11-04T03:09:23.700Z,27.55
2022-11-04T03:11:55.452Z,36.42
2022-11-04T03:14:35.465Z,31.10
2022-11-04T03:17:08.838Z,36.95
2022-11-04T03:19:47.119Z,32.35
2022-11-04T03:22:20.676Z,30.80
2022-11-04T03:24:49.389Z,30.08
2022-11-04T03:27:37.367Z,27.20
2022-11-04T03:30:14.919Z,31.08
2022-11-04T03:33:11.485Z,29.02
2022-11-04T03:35:38.471Z,33.33
2022-11-04T03:38:05.576Z,31.65
2022-11-04T03:40:32.189Z,37.20
2022-11-04T03:43:08.929Z,30.40
2022-11-04T03:45:36.803Z,34.08
2022-11-04T03:48:03.812Z,25.02
2022-11-04T03:50:33.103Z,36.85
2022-11-04T03:53:00.461Z,27.60
2022-11-04T03:55:48.593Z,32.45
2022-11-04T03:58:31.485Z,25.80
2022-11-04T04:01:31.681Z,28.38
2022-11-04T04:04:06.868Z,27.13
2022-11-04T04:27:16.563Z,31.63
2022-11-04T04:29:45.819Z,36.97
2022-11-04T04:32:14.489Z,36.08
2022-11-04T04:34:41.542Z,36.42
2022-11-04T04:37:23.240Z,33.20
2022-11-04T04:40:23.847Z,33.88
2022-11-04T04:43:12.198Z,39.70
2022-11-04T04:45:42.473Z,36.33
2022-11-04T04:48:12.688Z,32.35
2022-11-04T04:50:45.945Z,37.95
2022-11-04T04:53:13.154Z,33.67
2022-11-04T04:55:41.693Z,39.35
2022-11-04T04:58:09.372Z,37.60
2022-11-04T05:00:36.271Z,39.78
2022-11-04T05:03:02.945Z,34.88
2022-11-04T05:05:29.564Z,37.88
2022-11-04T05:07:56.434Z,37.53
2022-11-04T05:10:23.056Z,48.95
2022-11-04T05:13:08.439Z,37.38
2022-11-04T05:15:35.117Z,40.70
2022-11-04T05:18:02.553Z,52.25
2022-11-04T05:20:30.507Z,40.75
2022-11-04T05:22:57.407Z,52.20
2022-11-04T05:25:24.295Z,53.88
2022-11-04T05:27:50.933Z,64.63
2022-11-04T05:30:17.911Z,46.13
2022-11-04T05:32:44.531Z,36.67
2022-11-04T05:35:11.214Z,36.65
2022-11-04T05:37:37.854Z,32.67
2022-11-04T05:40:05.039Z,38.63
2022-11-04T05:42:32.124Z,58.05
2022-11-04T05:44:58.753Z,58.15
2022-11-04T05:47:25.455Z,90.28
2022-11-04T05:49:52.421Z,38.78
2022-11-04T05:52:19.050Z,42.65
2022-11-04T05:54:45.658Z,52.70
2022-11-04T05:57:12.337Z,50.97
2022-11-04T05:59:39.196Z,51.83
2022-11-04T06:02:06.290Z,46.45
2022-11-04T06:04:33.615Z,63.38
2022-11-04T06:07:00.894Z,40.13
2022-11-04T06:09:39.526Z,52.08
2022-11-04T06:12:11.578Z,40.92
2022-11-04T06:17:07.587Z,32.97
2022-11-04T06:19:34.263Z,41.10
2022-11-04T06:22:00.833Z,35.17
2022-11-04T06:24:27.434Z,43.80
2022-11-04T06:26:54.046Z,50.80
2022-11-04T06:29:20.764Z,46.35
2022-11-04T06:31:47.453Z,53.50
2022-11-04T06:34:14.640Z,43.45
2022-11-04T06:36:41.839Z,43.25
2022-11-04T06:39:08.916Z,59.35
2022-11-04T06:41:36.241Z,52.65
2022-11-04T06:44:03.037Z,46.60
2022-11-04T06:46:38.696Z,54.88
2022-11-04T06:49:07.059Z,48.85
2022-11-04T06:51:33.903Z,37.92
2022-11-04T06:54:00.813Z,45.10
2022-11-04T06:56:27.574Z,40.15
2022-11-04T06:58:55.405Z,38.20
2022-11-04T07:01:24.481Z,38.08
2022-11-04T07:03:57.206Z,46.35
2022-11-04T07:06:24.870Z,50.20
2022-11-04T07:08:53.412Z,42.55
2022-11-04T07:11:22.067Z,46.92
2022-11-04T07:13:49.456Z,46.10
2022-11-04T07:16:17.335Z,46.88
2022-11-04T07:18:44.315Z,44.70
2022-11-04T07:21:12.838Z,54.00
2022-11-04T07:23:39.649Z,42.65
2022-11-04T07:26:08.658Z,46.13
2022-11-04T07:28:35.655Z,41.97
2022-11-04T07:31:03.762Z,42.47
2022-11-04T07:33:30.825Z,45.97
2022-11-04T07:35:58.562Z,42.65
2022-11-04T07:38:25.502Z,41.83
2022-11-04T07:40:52.417Z,55.40
2022-11-04T07:43:19.300Z,42.58
2022-11-04T07:45:46.138Z,55.30
2022-11-04T07:48:12.940Z,47.00
2022-11-04T07:50:40.763Z,52.38
2022-11-04T07:53:08.191Z,46.33
2022-11-04T07:55:43.225Z,52.53
2022-11-04T07:58:10.223Z,48.67
2022-11-04T08:00:36.855Z,57.90
2022-11-04T08:03:03.741Z,43.28
2022-11-04T08:05:30.671Z,42.60
2022-11-04T08:07:57.981Z,47.20
2022-11-04T08:10:24.864Z,48.22
2022-11-04T08:12:52.704Z,47.55
2022-11-04T08:15:19.383Z,40.67
2022-11-04T08:17:46.124Z,48.47
2022-11-04T08:20:13.308Z,46.90
2022-11-04T08:22:40.200Z,44.95
2022-11-04T08:25:07.339Z,46.13
2022-11-04T08:27:34.869Z,34.03
2022-11-04T08:30:02.303Z,37.08
2022-11-04T08:32:29.710Z,41.42
2022-11-04T08:34:56.973Z,37.60
2022-11-04T08:37:23.995Z,50.25
2022-11-04T08:39:50.756Z,39.70
2022-11-04T08:42:18.024Z,44.15
2022-11-04T08:44:44.993Z,40.10
2022-11-04T08:47:11.837Z,40.70
2022-11-04T08:49:41.194Z,47.33
2022-11-04T08:52:08.501Z,46.45
2022-11-04T08:54:35.769Z,43.53
2022-11-04T08:57:03.724Z,39.13
2022-11-04T08:59:30.834Z,34.60
2022-11-04T09:01:57.571Z,40.45
2022-11-04T09:04:24.302Z,45.78
2022-11-04T09:06:52.698Z,39.90
2022-11-04T09:09:20.108Z,40.30
2022-11-04T09:11:47.428Z,37.55
2022-11-04T09:14:15.011Z,48.35
2022-11-04T09:16:42.121Z,41.25
2022-11-04T09:19:09.234Z,35.47
2022-11-04T09:21:36.656Z,39.00
2022-11-04T09:24:03.348Z,44.97
2022-11-04T09:26:30.187Z,37.22
2022-11-04T09:28:58.275Z,44.03
2022-11-04T09:31:26.763Z,40.90
2022-11-04T09:33:54.963Z,38.45
2022-11-04T09:36:22.398Z,38.58
2022-11-04T09:38:49.829Z,42.75
2022-11-04T09:41:42.398Z,42.50
2022-11-04T09:44:28.904Z,37.15
2022-11-04T09:47:00.082Z,42.67
2022-11-04T09:49:32.749Z,37.53
2022-11-04T09:52:02.316Z,36.53
2022-11-04T09:54:47.330Z,34.45
2022-11-04T09:57:19.186Z,38.03
2022-11-04T09:59:47.451Z,45.17
2022-11-04T10:02:32.210Z,33.15
2022-11-04T10:05:29.407Z,33.22
2022-11-04T10:08:25.168Z,34.22
2022-11-04T10:11:22.322Z,34.72
2022-11-04T10:13:52.010Z,33.58
2022-11-04T10:16:25.508Z,28.90
2022-11-04T10:19:32.434Z,35.35
2022-11-04T10:22:04.132Z,33.28
2022-11-04T10:24:42.845Z,27.70
2022-11-04T10:27:17.352Z,33.90
2022-11-04T10:29:52.888Z,35.75
2022-11-04T10:32:35.696Z,33.97
2022-11-04T10:35:17.829Z,36.63
2022-11-04T10:37:47.247Z,32.30
2022-11-04T10:40:37.659Z,25.05
2022-11-04T10:43:10.895Z,30.25
2022-11-04T10:45:48.297Z,32.17
2022-11-04T10:48:30.131Z,24.75
2022-11-04T10:50:59.027Z,30.83
2022-11-04T10:53:31.567Z,31.45
2022-11-04T10:56:17.047Z,23.40
2022-11-04T10:58:47.353Z,29.67
2022-11-04T11:01:29.984Z,25.33
2022-11-04T11:03:57.800Z,33.35
2022-11-04T11:06:30.762Z,23.05
2022-11-04T11:09:01.463Z,27.27
2022-11-04T11:11:47.453Z,24.02
2022-11-04T11:14:17.351Z,33.97
2022-11-04T11:16:45.783Z,26.35
2022-11-04T11:19:12.371Z,24.48
2022-11-04T11:21:50.797Z,26.77
2022-11-04T11:24:27.570Z,23.20
2022-11-04T11:27:00.069Z,29.45
2022-11-04T11:29:40.565Z,27.05
2022-11-04T11:32:28.359Z,27.50
2022-11-04T11:34:55.103Z,25.48
2022-11-04T11:37:25.966Z,20.80
2022-11-04T11:39:52.825Z,23.00
2022-11-04T11:42:20.962Z,21.20
2022-11-04T11:44:50.839Z,21.50
2022-11-04T11:47:30.746Z,27.75
2022-11-04T11:50:18.232Z,32.90
2022-11-04T11:52:46.828Z,24.27
2022-11-04T11:55:28.850Z,24.35
2022-11-04T12:01:03.528Z,26.67
2022-11-04T12:10:18.563Z,18.20
2022-11-04T12:13:23.385Z,21.10
2022-11-04T12:16:09.579Z,33.05
2022-11-04T12:18:54.257Z,26.48
2022-11-04T12:21:35.832Z,19.92
2022-11-04T12:24:39.722Z,18.15
2022-11-04T12:27:14.357Z,22.73
2022-11-04T12:30:07.699Z,27.67
2022-11-04T12:32:48.076Z,21.30
2022-11-04T12:35:36.970Z,21.48
2022-11-04T12:38:16.586Z,18.77
2022-11-04T12:41:04.865Z,28.85
2022-11-04T12:44:02.488Z,26.25
2022-11-04T12:46:46.733Z,22.73
2022-11-04T12:49:25.233Z,19.58
2022-11-04T12:52:15.251Z,26.73
2022-11-04T12:54:57.119Z,24.20
2022-11-04T12:58:02.176Z,23.75
2022-11-04T13:00:31.265Z,20.80
2022-11-04T13:03:08.860Z,28.08
2022-11-04T13:06:02.444Z,25.73
2022-11-04T13:08:39.467Z,18.77
2022-11-04T13:11:25.103Z,25.50
2022-11-04T13:14:00.464Z,23.50
2022-11-04T13:16:29.101Z,20.38
2022-11-04T13:18:58.068Z,15.38
2022-11-04T13:21:28.206Z,21.73
2022-11-04T13:24:01.438Z,20.65
2022-11-04T13:26:28.300Z,22.50
2022-11-04T13:29:11.223Z,24.60
2022-11-04T13:31:54.244Z,31.60
2022-11-04T13:34:36.185Z,22.92
2022-11-04T13:37:12.921Z,25.83
2022-11-04T13:39:59.752Z,29.85
2022-11-04T13:42:52.308Z,17.40
2022-11-04T13:45:20.661Z,34.17
2022-11-04T13:47:53.485Z,29.23
2022-11-04T13:50:38.950Z,23.63
2022-11-04T13:53:09.570Z,30.48
2022-11-04T13:55:47.909Z,27.58
2022-11-04T13:58:24.009Z,26.45
2022-11-04T14:01:12.066Z,33.38
2022-11-04T14:03:59.454Z,32.75
2022-11-04T14:07:04.431Z,30.45
2022-11-04T14:09:43.236Z,35.35
2022-11-04T14:12:17.428Z,25.67
2022-11-04T14:14:47.865Z,29.88
2022-11-04T14:17:33.022Z,40.55
2022-11-04T14:20:06.232Z,32.15
2022-11-04T14:22:43.599Z,27.48
2022-11-04T14:25:22.544Z,27.10
2022-11-04T14:28:00.133Z,24.85
2022-11-04T14:30:59.096Z,25.83
2022-11-04T14:33:54.066Z,29.75
2022-11-04T14:36:20.925Z,36.97
2022-11-04T14:39:21.077Z,26.45
2022-11-04T14:42:02.421Z,30.27
2022-11-04T14:44:50.291Z,35.03
2022-11-04T14:47:26.223Z,35.50
2022-11-04T14:50:01.022Z,26.30
2022-11-04T14:52:39.066Z,25.60
2022-11-04T14:55:14.079Z,30.85
2022-11-04T14:57:52.086Z,25.52
2022-11-04T15:00:23.428Z,36.72
2022-11-04T15:03:45.582Z,32.53
2022-11-04T15:06:03.538Z,36.88
2022-11-04T15:08:42.417Z,34.42
2022-11-04T15:11:38.640Z,27.63
2022-11-04T15:14:15.245Z,29.77
2022-11-04T15:16:45.932Z,30.30
2022-11-04T15:19:18.273Z,33.72
2022-11-04T15:21:48.365Z,24.13
2022-11-04T15:24:17.613Z,29.20
2022-11-04T15:26:51.142Z,23.02
2022-11-04T15:29:19.770Z,28.23
2022-11-04T15:32:05.839Z,25.20
2022-11-04T15:34:34.140Z,37.08
2022-11-04T15:37:06.355Z,32.03
2022-11-04T15:39:43.494Z,34.65
2022-11-04T15:42:43.815Z,30.30
2022-11-04T15:45:22.681Z,40.00
2022-11-04T15:47:50.875Z,25.92
2022-11-04T15:50:26.027Z,30.35
2022-11-04T15:52:56.127Z,30.85
2022-11-04T15:55:25.942Z,39.88
2022-11-04T15:57:53.554Z,35.13
2022-11-04T16:00:24.792Z,40.95
2022-11-04T16:02:57.443Z,48.63
2022-11-04T16:05:29.011Z,42.70
2022-11-04T16:08:14.025Z,47.05
2022-11-04T16:10:41.086Z,34.67
2022-11-04T16:13:17.446Z,40.78
2022-11-04T16:15:51.058Z,30.38
2022-11-04T16:18:34.356Z,31.58
2022-11-04T16:21:14.546Z,35.60
2022-11-04T16:23:51.292Z,39.60
2022-11-04T16:26:26.070Z,35.15
2022-11-04T16:28:58.600Z,41.28
2022-11-04T16:31:34.672Z,36.70
2022-11-04T16:34:01.818Z,39.78
2022-11-04T16:36:33.984Z,43.90
2022-11-04T16:39:09.114Z,41.45
2022-11-04T16:41:40.974Z,48.45
2022-11-04T16:44:20.133Z,40.08
2022-11-04T16:46:46.828Z,29.88
2022-11-04T16:49:19.916Z,35.65
2022-11-04T16:51:49.686Z,32.58
2022-11-04T16:54:16.707Z,31.83
2022-11-04T16:56:44.032Z,39.15
2022-11-04T16:59:12.180Z,28.88
2022-11-04T17:01:42.263Z,37.33
2022-11-04T17:04:09.562Z,35.80
2022-11-04T17:06:36.552Z,28.58
2022-11-04T17:09:03.925Z,37.45
2022-11-04T17:11:30.483Z,30.10
2022-11-04T17:13:57.286Z,31.00
2022-11-04T17:16:24.634Z,28.27
2022-11-04T17:18:51.367Z,38.70
2022-11-04T17:21:20.371Z,29.25
2022-11-04T17:23:47.197Z,28.65
2022-11-04T17:26:14.386Z,30.48
2022-11-04T17:28:41.415Z,31.02
2022-11-04T17:31:08.402Z,34.15
2022-11-04T17:33:35.077Z,43.17
2022-11-04T17:36:07.492Z,28.33
2022-11-04T17:38:34.490Z,29.67
2022-11-04T17:41:19.928Z,36.17
2022-11-04T17:44:01.735Z,29.48
2022-11-04T17:46:37.796Z,31.85
2022-11-04T17:49:07.280Z,38.25
2022-11-04T17:51:34.394Z,31.70
2022-11-04T17:54:01.222Z,31.00
2022-11-04T17:56:28.561Z,42.78
2022-11-04T17:58:55.341Z,35.83
2022-11-04T18:01:23.328Z,35.90
2022-11-04T18:03:52.510Z,51.83
2022-11-04T18:06:20.819Z,41.53
2022-11-04T18:08:47.893Z,34.10
2022-11-04T18:11:35.249Z,35.85
2022-11-04T18:14:02.125Z,27.77
2022-11-04T18:16:29.340Z,34.03
2022-11-04T18:18:58.675Z,36.20
2022-11-04T18:21:26.036Z,33.75
2022-11-04T18:23:52.865Z,30.63
2022-11-04T18:26:19.736Z,31.48
2022-11-04T18:28:46.499Z,32.15
2022-11-04T18:31:22.313Z,40.72
2022-11-04T18:33:48.968Z,36.05
2022-11-04T18:36:15.956Z,27.42
2022-11-04T18:38:42.567Z,25.48
2022-11-04T18:41:10.049Z,26.85
2022-11-04T18:43:36.721Z,34.65
2022-11-04T18:46:14.893Z,30.98
2022-11-04T18:48:42.819Z,38.70
2022-11-04T18:51:12.140Z,40.50
2022-11-04T18:53:38.810Z,33.65
2022-11-04T18:56:11.071Z,28.45
2022-11-04T19:01:11.847Z,42.67
2022-11-04T19:03:38.586Z,31.10
2022-11-04T19:06:11.236Z,31.13
2022-11-04T19:08:45.292Z,34.30
2022-11-04T19:11:28.339Z,33.97
2022-11-04T19:13:58.508Z,32.25
2022-11-04T19:16:26.590Z,32.17
2022-11-04T19:18:55.265Z,36.65
2022-11-04T19:21:24.435Z,28.77
2022-11-04T19:23:51.410Z,32.97
2022-11-04T19:26:22.289Z,32.50
2022-11-04T19:28:50.419Z,42.15
2022-11-04T19:31:20.310Z,41.25
2022-11-04T19:33:48.923Z,34.63
2022-11-04T19:36:17.050Z,29.02
2022-11-04T19:38:46.818Z,43.17
2022-11-04T19:41:34.380Z,35.65
2022-11-04T19:44:02.103Z,30.88
2022-11-04T19:46:28.970Z,35.85
2022-11-04T19:48:56.754Z,37.95
2022-11-04T19:51:29.253Z,36.40
2022-11-04T19:53:58.614Z,36.95
2022-11-04T19:56:25.442Z,41.10
2022-11-04T19:58:52.128Z,45.33
2022-11-04T20:01:19.472Z,42.08
2022-11-04T20:03:46.190Z,53.38
2022-11-04T20:06:14.910Z,47.83
2022-11-04T20:08:43.272Z,47.33
2022-11-04T20:11:10.634Z,46.40
2022-11-04T20:13:49.164Z,48.47
2022-11-04T20:16:17.938Z,48.45
2022-11-04T20:18:50.897Z,45.00
2022-11-04T20:21:19.686Z,44.88
2022-11-04T20:23:47.149Z,41.38
2022-11-04T20:26:20.585Z,40.33
2022-11-04T20:28:47.806Z,49.35
2022-11-04T20:31:21.101Z,52.63
2022-11-04T20:33:49.268Z,47.67
2022-11-04T20:36:18.557Z,46.88
2022-11-04T20:38:47.608Z,41.53
2022-11-04T20:41:19.881Z,45.95
2022-11-04T20:46:16.690Z,46.22
2022-11-04T20:48:43.534Z,46.80
2022-11-04T20:51:12.684Z,40.15
2022-11-04T20:53:40.448Z,43.60
2022-11-04T20:56:10.665Z,50.67
2022-11-04T20:58:39.023Z,44.40
2022-11-04T21:01:17.936Z,44.95
2022-11-04T21:03:45.012Z,48.45
2022-11-04T21:06:12.045Z,46.55
2022-11-04T21:08:38.965Z,41.00
2022-11-04T21:11:06.803Z,43.78
2022-11-04T21:13:34.069Z,49.40
2022-11-04T21:16:01.912Z,41.50
2022-11-04T21:18:29.497Z,41.72
2022-11-04T21:20:57.389Z,43.22
2022-11-04T21:23:25.767Z,51.85
2022-11-04T21:25:57.905Z,43.92
2022-11-04T21:28:26.034Z,43.90
2022-11-04T21:30:54.137Z,42.05
2022-11-04T21:33:21.001Z,42.88
2022-11-04T21:35:51.026Z,58.28
2022-11-04T21:38:18.761Z,40.40
2022-11-04T21:40:46.447Z,43.88
2022-11-04T21:43:13.371Z,49.00
2022-11-04T21:45:40.229Z,52.45
2022-11-04T21:48:07.754Z,45.33
2022-11-04T21:50:34.669Z,46.08
2022-11-04T21:53:01.429Z,42.03
2022-11-04T21:55:28.142Z,51.65
2022-11-04T21:57:54.768Z,48.17
2022-11-04T22:00:21.633Z,42.85
2022-11-04T22:02:51.136Z,45.45
2022-11-04T22:05:18.020Z,45.50
2022-11-04T22:08:03.092Z,48.30
2022-11-04T22:10:29.657Z,45.63
2022-11-04T22:12:56.566Z,47.78
2022-11-04T22:15:41.745Z,44.50
2022-11-04T22:18:08.721Z,44.92
2022-11-04T22:20:36.590Z,45.45
2022-11-04T22:23:03.579Z,48.97
2022-11-04T22:25:31.355Z,49.05
2022-11-04T22:27:58.048Z,48.05
2022-11-04T22:30:25.678Z,42.97
2022-11-04T22:32:53.147Z,43.13
2022-11-04T22:35:19.797Z,41.88
2022-11-04T22:37:46.601Z,42.97
2022-11-04T22:40:13.434Z,46.78
2022-11-04T22:42:40.092Z,46.50
2022-11-04T22:45:07.774Z,42.95
2022-11-04T22:47:36.826Z,36.53
2022-11-04T22:50:04.015Z,42.67
2022-11-04T22:52:31.778Z,55.08
2022-11-04T22:54:58.363Z,47.47
2022-11-04T22:57:25.217Z,49.13
2022-11-04T22:59:51.842Z,42.30
2022-11-04T23:02:18.690Z,51.05
2022-11-04T23:04:45.423Z,45.67
2022-11-04T23:07:12.089Z,43.67
2022-11-04T23:09:58.643Z,40.80
2022-11-04T23:12:44.036Z,49.15
2022-11-04T23:15:29.310Z,48.00
2022-11-04T23:18:14.536Z,45.13
2022-11-04T23:20:41.405Z,43.10
2022-11-04T23:23:26.802Z,45.90
2022-11-04T23:25:53.706Z,42.70
2022-11-04T23:28:38.802Z,39.17
2022-11-04T23:31:05.489Z,51.83
2022-11-04T23:33:50.620Z,55.78
2022-11-04T23:36:36.965Z,49.38
2022-11-04T23:39:03.936Z,45.58
2022-11-04T23:41:49.334Z,46.85
2022-11-04T23:44:35.937Z,48.38
2022-11-04T23:47:21.413Z,52.55
2022-11-04T23:50:06.742Z,45.15
2022-11-04T23:52:52.335Z,38.63
2022-11-04T23:55:37.819Z,45.20
2022-11-04T23:58:23.173Z,44.80
